Weather reports worldwide

Advertisment
Albacete, Spain (8279): temperature & dewpoint: 13.07.2018 13:00:00 - 19.07.2018 13:00:00 (CEST)Albacete, Spain (8279): wind speed & gusts: 13.07.2018 13:00:00 - 19.07.2018 13:00:00 (CEST)Albacete, Spain (8279): wind direction: 13.07.2018 13:00:00 - 19.07.2018 13:00:00 (CEST)Albacete, Spain (8279): reduced air pressure: 13.07.2018 13:00:00 - 19.07.2018 13:00:00 (CEST)Albacete, Spain (8279): precipitation: 13.07.2018 13:00:00 - 19.07.2018 13:00:00 (CEST)
Date & Time tt [°C] td [°C] ff [km/h] ff [kn] fx [km/h] fx [kn] dd ppp [hPa] rr [mm]
19.07.2018 13:00:00 30,8 14,0 2 1 10 5 E 1012,3 0,0
19.07.2018 12:00:00 27,4 12,6 1 1 10 5 NW 1013,4 0,0
19.07.2018 11:00:00 24,8 12,7 1 1 8 5 NNW 1014,3 0,0
19.07.2018 10:00:00 22,4 11,8 1 1 8 4 N 1014,8 0,0
19.07.2018 09:00:00 19,1 13,5 1 1 5 3 NW 1015,7 0,0
19.07.2018 08:00:00 17,8 14,1 0 0 4 2 N 1015,9 -
19.07.2018 07:00:00 19,3 14,3 0 0 8 4 E 1015,2 0,0
19.07.2018 06:00:00 19,8 15,0 2 1 10 5 SE 1014,6 0,0
19.07.2018 05:00:00 20,4 15,4 4 2 12 6 SE 1014,5 0,0
19.07.2018 04:00:00 21,2 15,3 2 1 16 8 SE 1014,0 0,0
19.07.2018 03:00:00 22,0 15,3 4 2 19 10 SSE 1013,8 0,0
19.07.2018 02:00:00 22,8 14,9 5 3 19 10 S 1014,0 -
19.07.2018 01:00:00 23,2 14,2 4 2 15 8 SSE 1014,1 0,0
19.07.2018 00:00:00 24,4 13,9 4 2 26 14 SSW 1013,6 0,0
18.07.2018 23:00:00 25,9 13,8 7 4 24 13 S 1012,6 0,0
18.07.2018 22:00:00 28,4 13,5 8 4 21 11 SSW 1011,2 0,0
18.07.2018 21:00:00 32,2 7,8 10 5 23 12 WSW 1009,8 0,0
18.07.2018 20:00:00 33,9 10,5 10 5 30 16 WSW 1009,1 -
18.07.2018 19:00:00 34,1 13,6 6 3 20 11 S 1008,8 0,0
18.07.2018 18:00:00 34,2 14,1 4 2 17 9 S 1009,1 0,0
18.07.2018 17:00:00 33,8 13,9 2 1 23 12 N 1009,5 0,0
18.07.2018 16:00:00 32,9 14,0 2 1 20 11 S 1010,4 0,0
18.07.2018 15:00:00 31,6 13,4 6 3 20 11 S 1011,3 0,0
18.07.2018 14:00:00 30,7 13,5 9 5 21 11 SE 1012,1 -
18.07.2018 13:00:00 29,6 13,4 6 3 18 10 SSE 1013,0 0,0
18.07.2018 12:00:00 27,7 12,5 4 2 15 8 SW 1013,6 0,0
18.07.2018 11:00:00 26,0 12,4 4 2 19 11 S 1014,1 0,0
18.07.2018 10:00:00 24,1 12,7 5 3 18 10 SSW 1014,8 0,0
18.07.2018 09:00:00 20,3 12,5 5 3 18 10 ESE 1015,2 0,0
18.07.2018 08:00:00 18,2 11,0 5 3 10 5 E 1016,0 -
18.07.2018 07:00:00 18,6 10,6 3 2 10 5 E 1015,6 0,0
18.07.2018 06:00:00 19,5 10,8 3 1 9 5 E 1015,2 0,0
18.07.2018 05:00:00 19,8 10,5 3 2 10 5 E 1015,2 0,0
18.07.2018 04:00:00 20,2 10,0 4 2 14 8 E 1014,5 0,0
18.07.2018 03:00:00 21,0 9,3 3 2 17 9 ENE 1014,9 0,0
18.07.2018 02:00:00 21,9 9,0 6 3 20 11 SE 1014,6 -
18.07.2018 01:00:00 22,7 9,8 5 3 22 12 ESE 1014,4 0,0
18.07.2018 00:00:00 23,9 9,8 9 5 24 13 SE 1013,8 0,0
17.07.2018 23:00:00 25,2 9,9 8 4 22 12 SE 1013,6 0,0
17.07.2018 22:00:00 26,7 10,4 5 3 27 15 S 1012,4 0,0
17.07.2018 21:00:00 29,0 11,1 9 5 26 14 SE 1011,4 0,0
17.07.2018 20:00:00 31,2 11,0 8 4 31 17 SSE 1010,5 -
17.07.2018 19:00:00 32,3 11,4 10 5 32 17 SSE 1009,9 0,0
17.07.2018 18:00:00 33,3 12,3 8 5 29 15 SSE 1010,2 0,0
17.07.2018 17:00:00 33,4 11,9 10 5 29 16 SSE 1010,8 0,0
17.07.2018 16:00:00 33,7 11,6 10 5 29 16 SE 1011,2 0,0
17.07.2018 15:00:00 32,5 11,7 8 5 31 17 SE 1012,4 0,0
17.07.2018 14:00:00 31,5 11,8 7 4 26 14 SSE 1013,2 -
17.07.2018 13:00:00 30,4 12,3 7 4 24 13 SSE 1013,9 0,0
17.07.2018 12:00:00 28,2 13,0 5 3 21 11 SSE 1014,6 0,0
17.07.2018 11:00:00 24,6 13,5 3 2 10 6 ESE 1015,9 0,0
17.07.2018 10:00:00 20,8 11,1 1 0 5 3 N 1017,5 0,0
17.07.2018 09:00:00 18,6 9,9 1 1 9 5 NW 1018,1 0,0
17.07.2018 08:00:00 17,2 9,3 3 1 6 4 W 1018,4 -
17.07.2018 07:00:00 16,6 8,8 0 0 0 0 N 1018,3 0,0
17.07.2018 06:00:00 17,2 8,7 0 0 3 2 N 1018,0 0,0
17.07.2018 05:00:00 18,3 8,5 1 0 4 2 ENE 1017,6 0,0
17.07.2018 04:00:00 19,3 8,9 1 1 3 2 ENE 1017,1 0,0
17.07.2018 03:00:00 19,9 8,5 0 0 2 1 ENE 1017,1 0,0
17.07.2018 02:00:00 21,2 8,8 2 1 9 5 E 1017,2 -
17.07.2018 01:00:00 22,5 8,5 1 0 7 4 WSW 1016,8 0,0
17.07.2018 00:00:00 24,5 8,8 2 1 9 5 NW 1016,1 0,0
16.07.2018 23:00:00 25,8 8,8 2 1 12 6 NW 1015,6 0,0
16.07.2018 22:00:00 27,0 8,4 3 2 14 8 WNW 1014,7 0,0
16.07.2018 21:00:00 28,7 8,4 4 2 16 9 WNW 1014,1 0,0
16.07.2018 20:00:00 30,3 9,8 5 3 20 11 WNW 1013,4 -
16.07.2018 19:00:00 30,3 10,3 6 3 23 13 WNW 1013,1 0,0
16.07.2018 18:00:00 30,1 10,0 9 5 27 15 WNW 1013,6 0,0
16.07.2018 17:00:00 30,1 10,6 9 5 29 15 W 1013,6 0,0
16.07.2018 16:00:00 29,1 11,2 8 5 32 18 W 1014,0 0,0
16.07.2018 15:00:00 28,3 11,8 8 4 36 20 WNW 1014,6 0,0
16.07.2018 14:00:00 27,1 12,0 10 5 30 16 WNW 1015,3 -
16.07.2018 13:00:00 25,3 11,8 9 5 42 23 WNW 1016,0 0,0
16.07.2018 12:00:00 23,6 12,5 10 6 32 17 WNW 1016,3 0,0
16.07.2018 11:00:00 21,6 12,2 10 6 31 17 W 1016,7 0,0
16.07.2018 10:00:00 20,4 11,9 10 5 32 17 W 1017,3 0,0
16.07.2018 09:00:00 18,6 11,4 10 5 32 17 W 1017,5 0,0
16.07.2018 08:00:00 16,8 10,2 6 3 19 10 W 1017,7 -
16.07.2018 07:00:00 16,8 9,0 7 4 17 9 WSW 1017,2 0,0
16.07.2018 06:00:00 17,5 8,7 5 3 18 10 W 1016,9 0,0
16.07.2018 05:00:00 18,5 8,8 6 3 20 11 W 1016,5 0,0
16.07.2018 04:00:00 19,8 9,3 10 6 23 13 W 1016,1 0,0
16.07.2018 03:00:00 20,5 9,4 10 6 23 13 W 1015,9 0,0
16.07.2018 02:00:00 21,0 8,7 12 6 24 13 W 1016,0 -
16.07.2018 01:00:00 22,4 8,1 10 5 29 16 W 1015,4 0,0
16.07.2018 00:00:00 23,4 6,2 10 5 27 14 W 1014,4 0,0
15.07.2018 23:00:00 25,4 5,6 9 5 27 15 W 1013,6 0,0
15.07.2018 22:00:00 27,1 6,5 8 4 34 18 W 1012,0 0,0
15.07.2018 21:00:00 28,9 7,4 16 9 35 19 W 1010,7 0,0
15.07.2018 20:00:00 30,2 8,0 13 7 32 17 W 1010,0 -
15.07.2018 19:00:00 30,6 7,7 10 6 42 23 W 1010,2 0,0
15.07.2018 18:00:00 33,3 10,0 13 7 31 17 W 1009,3 0,0
15.07.2018 17:00:00 33,6 10,9 8 5 28 15 W 1009,7 0,0
15.07.2018 16:00:00 32,5 10,5 5 3 16 9 WSW 1010,5 0,0
15.07.2018 15:00:00 32,2 12,4 4 2 16 8 S 1011,2 0,0
15.07.2018 14:00:00 30,3 12,2 4 2 13 7 WSW 1012,5 -
15.07.2018 13:00:00 28,6 13,3 3 2 16 9 NW 1013,8 0,0
15.07.2018 12:00:00 26,0 12,8 1 0 11 6 ENE 1015,0 0,0
15.07.2018 11:00:00 24,2 12,2 5 3 14 7 W 1015,7 0,0
15.07.2018 10:00:00 22,4 12,1 2 1 12 7 W 1016,6 0,0
15.07.2018 09:00:00 20,5 11,7 4 2 9 5 SW 1016,9 0,0
15.07.2018 08:00:00 19,8 11,3 3 2 8 4 WNW 1017,0 -
15.07.2018 07:00:00 20,1 12,1 3 2 10 6 WSW 1017,1 0,0
15.07.2018 06:00:00 21,0 12,6 5 3 16 9 W 1016,5 0,0
15.07.2018 05:00:00 22,2 13,3 5 3 13 7 W 1016,1 0,0
15.07.2018 04:00:00 22,9 12,2 4 2 11 6 WSW 1015,9 0,0
15.07.2018 03:00:00 23,6 12,5 3 2 13 7 WNW 1015,9 0,0
15.07.2018 02:00:00 25,0 15,6 5 3 13 7 SW 1015,5 -
15.07.2018 01:00:00 26,0 15,3 7 4 15 8 S 1015,0 0,0
15.07.2018 00:00:00 27,7 15,3 6 3 14 8 SSW 1014,5 0,0
14.07.2018 23:00:00 29,4 14,0 4 2 16 8 SW 1013,7 0,0
14.07.2018 22:00:00 30,0 7,8 8 4 21 11 W 1012,7 0,0
14.07.2018 21:00:00 32,0 7,6 6 4 27 15 W 1011,4 0,0
14.07.2018 20:00:00 33,3 8,0 13 7 34 18 W 1011,0 -
14.07.2018 19:00:00 34,2 7,3 13 7 39 21 W 1010,7 0,0
14.07.2018 18:00:00 34,3 5,8 16 9 36 20 W 1011,3 0,0
14.07.2018 17:00:00 34,3 10,2 4 2 19 10 W 1011,7 0,0
14.07.2018 16:00:00 33,5 11,3 6 3 21 12 W 1012,3 0,0
14.07.2018 15:00:00 32,0 12,2 6 3 22 12 W 1013,5 0,0
14.07.2018 14:00:00 31,1 13,4 4 2 17 9 SW 1014,3 -
14.07.2018 13:00:00 28,9 12,7 3 2 13 7 SW 1015,1 0,0
14.07.2018 12:00:00 26,6 11,9 3 2 18 10 WNW 1015,8 0,0
14.07.2018 11:00:00 24,7 12,0 5 3 16 8 WNW 1016,6 0,0
14.07.2018 10:00:00 22,7 11,8 3 2 10 5 W 1016,9 0,0
14.07.2018 09:00:00 21,1 13,1 2 1 6 3 W 1017,2 0,0
14.07.2018 08:00:00 20,6 13,6 3 2 10 6 SW 1016,8 -
14.07.2018 07:00:00 20,2 14,5 2 1 9 5 WSW 1016,2 0,0
14.07.2018 06:00:00 20,3 16,7 1 1 7 4 S 1016,0 0,0
14.07.2018 05:00:00 20,5 17,1 0 0 9 5 SW 1015,7 0,0
14.07.2018 04:00:00 20,9 17,1 3 1 12 6 ESE 1016,1 0,0
14.07.2018 03:00:00 21,8 17,0 5 3 13 7 SSE 1015,5 0,0
14.07.2018 02:00:00 22,6 16,8 4 2 15 8 SSE 1015,9 -
14.07.2018 01:00:00 23,3 17,1 4 2 18 10 SE 1015,9 0,0
14.07.2018 00:00:00 24,3 17,8 4 2 20 11 S 1015,5 0,0
13.07.2018 23:00:00 25,2 17,9 8 4 21 11 SE 1014,6 0,0
13.07.2018 22:00:00 26,2 17,5 5 3 28 15 E 1013,4 0,0
13.07.2018 21:00:00 28,1 16,7 7 4 28 15 E 1011,9 0,0
13.07.2018 20:00:00 30,7 16,3 8 4 24 13 ESE 1010,8 -
13.07.2018 19:00:00 32,0 15,9 9 5 25 14 ESE 1010,2 0,0
13.07.2018 18:00:00 32,4 15,9 7 4 27 14 E 1010,2 0,0
13.07.2018 17:00:00 - - 9 5 21 11 E - 0,0
13.07.2018 16:00:00 31,9 14,5 5 3 27 15 SE 1010,9 0,0
13.07.2018 15:00:00 31,9 15,0 7 4 22 12 SE 1011,6 0,0
13.07.2018 14:00:00 30,3 13,6 5 3 29 16 SE 1012,0 -
13.07.2018 13:00:00 28,9 15,8 6 3 22 12 E 1013,1 0,0

tt = temperature
td = dewpoint
ff = wind speed
fx = gusts
dd = wind direction
ppp = reduced air pressure
rr = precipitation

Next stations